sensor_id;sensor_type;location;lat;lon;timestamp;P1;durP1;ratioP1;P2;durP2;ratioP2
33254;SDS011;19623;52.482;9.762;2023-03-03T00:01:15;32.00;;;12.40;;
33254;SDS011;19623;52.482;9.762;2023-03-03T00:03:41;30.42;;;11.93;;
33254;SDS011;19623;52.482;9.762;2023-03-03T00:06:08;26.25;;;10.65;;
33254;SDS011;19623;52.482;9.762;2023-03-03T00:08:36;27.95;;;10.60;;
33254;SDS011;19623;52.482;9.762;2023-03-03T00:11:02;31.55;;;10.98;;
33254;SDS011;19623;52.482;9.762;2023-03-03T00:13:30;27.50;;;11.43;;
33254;SDS011;19623;52.482;9.762;2023-03-03T00:16:13;27.40;;;11.88;;
33254;SDS011;19623;52.482;9.762;2023-03-03T00:18:42;33.92;;;12.95;;
33254;SDS011;19623;52.482;9.762;2023-03-03T00:24:14;38.22;;;12.63;;
33254;SDS011;19623;52.482;9.762;2023-03-03T00:26:52;32.25;;;12.98;;
33254;SDS011;19623;52.482;9.762;2023-03-03T00:34:53;29.30;;;12.17;;
33254;SDS011;19623;52.482;9.762;2023-03-03T00:37:27;28.00;;;11.55;;
33254;SDS011;19623;52.482;9.762;2023-03-03T00:40:43;28.85;;;11.60;;
33254;SDS011;19623;52.482;9.762;2023-03-03T00:42:46;32.20;;;11.88;;
33254;SDS011;19623;52.482;9.762;2023-03-03T00:47:54;29.17;;;10.68;;
33254;SDS011;19623;52.482;9.762;2023-03-03T00:52:59;29.02;;;12.52;;
33254;SDS011;19623;52.482;9.762;2023-03-03T00:55:30;26.33;;;10.88;;
33254;SDS011;19623;52.482;9.762;2023-03-03T00:57:56;24.67;;;10.63;;
33254;SDS011;19623;52.482;9.762;2023-03-03T01:00:22;26.33;;;10.93;;
33254;SDS011;19623;52.482;9.762;2023-03-03T01:02:48;28.17;;;10.88;;
33254;SDS011;19623;52.482;9.762;2023-03-03T01:05:15;24.33;;;10.32;;
33254;SDS011;19623;52.482;9.762;2023-03-03T01:07:42;25.33;;;10.88;;
33254;SDS011;19623;52.482;9.762;2023-03-03T01:10:07;22.83;;;10.88;;
33254;SDS011;19623;52.482;9.762;2023-03-03T01:12:34;26.58;;;11.02;;
33254;SDS011;19623;52.482;9.762;2023-03-03T01:15:00;28.60;;;11.05;;
33254;SDS011;19623;52.482;9.762;2023-03-03T01:17:26;28.25;;;11.77;;
33254;SDS011;19623;52.482;9.762;2023-03-03T01:19:52;25.50;;;10.98;;
33254;SDS011;19623;52.482;9.762;2023-03-03T01:22:18;26.73;;;11.35;;
33254;SDS011;19623;52.482;9.762;2023-03-03T01:24:43;26.38;;;10.05;;
33254;SDS011;19623;52.482;9.762;2023-03-03T01:27:09;26.52;;;11.10;;
33254;SDS011;19623;52.482;9.762;2023-03-03T01:29:35;25.77;;;11.45;;
33254;SDS011;19623;52.482;9.762;2023-03-03T01:32:00;29.08;;;12.27;;
33254;SDS011;19623;52.482;9.762;2023-03-03T01:34:26;30.95;;;12.52;;
33254;SDS011;19623;52.482;9.762;2023-03-03T01:36:52;34.08;;;13.50;;
33254;SDS011;19623;52.482;9.762;2023-03-03T01:39:17;37.47;;;13.95;;
33254;SDS011;19623;52.482;9.762;2023-03-03T01:41:43;34.30;;;13.30;;
33254;SDS011;19623;52.482;9.762;2023-03-03T01:44:18;34.90;;;12.65;;
33254;SDS011;19623;52.482;9.762;2023-03-03T01:49:17;36.40;;;13.18;;
33254;SDS011;19623;52.482;9.762;2023-03-03T01:51:48;34.70;;;12.68;;
33254;SDS011;19623;52.482;9.762;2023-03-03T01:54:23;34.45;;;12.30;;
33254;SDS011;19623;52.482;9.762;2023-03-03T01:57:01;32.60;;;11.88;;
33254;SDS011;19623;52.482;9.762;2023-03-03T01:59:31;32.45;;;12.05;;
33254;SDS011;19623;52.482;9.762;2023-03-03T02:02:01;39.42;;;13.02;;
33254;SDS011;19623;52.482;9.762;2023-03-03T02:04:27;33.63;;;11.95;;
33254;SDS011;19623;52.482;9.762;2023-03-03T02:06:54;30.13;;;11.38;;
33254;SDS011;19623;52.482;9.762;2023-03-03T02:11:49;29.90;;;11.20;;
33254;SDS011;19623;52.482;9.762;2023-03-03T02:14:18;34.30;;;13.05;;
33254;SDS011;19623;52.482;9.762;2023-03-03T02:16:44;32.42;;;12.63;;
33254;SDS011;19623;52.482;9.762;2023-03-03T02:19:12;29.02;;;12.63;;
33254;SDS011;19623;52.482;9.762;2023-03-03T02:22:04;28.92;;;11.50;;
33254;SDS011;19623;52.482;9.762;2023-03-03T02:24:34;31.95;;;12.18;;
33254;SDS011;19623;52.482;9.762;2023-03-03T02:27:24;28.92;;;11.75;;
33254;SDS011;19623;52.482;9.762;2023-03-03T02:29:52;30.63;;;12.10;;
33254;SDS011;19623;52.482;9.762;2023-03-03T02:32:17;32.20;;;12.98;;
33254;SDS011;19623;52.482;9.762;2023-03-03T02:34:51;35.22;;;12.73;;
33254;SDS011;19623;52.482;9.762;2023-03-03T02:37:17;32.70;;;13.15;;
33254;SDS011;19623;52.482;9.762;2023-03-03T02:39:44;40.60;;;12.65;;
33254;SDS011;19623;52.482;9.762;2023-03-03T02:42:24;31.63;;;11.98;;
33254;SDS011;19623;52.482;9.762;2023-03-03T02:44:53;33.20;;;13.75;;
33254;SDS011;19623;52.482;9.762;2023-03-03T02:47:19;30.67;;;11.63;;
33254;SDS011;19623;52.482;9.762;2023-03-03T02:49:44;33.55;;;13.35;;
33254;SDS011;19623;52.482;9.762;2023-03-03T02:52:10;29.95;;;12.68;;
33254;SDS011;19623;52.482;9.762;2023-03-03T02:54:38;36.03;;;13.30;;
33254;SDS011;19623;52.482;9.762;2023-03-03T02:57:04;36.47;;;13.13;;
33254;SDS011;19623;52.482;9.762;2023-03-03T02:59:30;36.47;;;13.93;;
33254;SDS011;19623;52.482;9.762;2023-03-03T03:01:56;29.63;;;11.70;;
33254;SDS011;19623;52.482;9.762;2023-03-03T03:04:23;32.95;;;13.00;;
33254;SDS011;19623;52.482;9.762;2023-03-03T03:06:49;32.83;;;12.88;;
33254;SDS011;19623;52.482;9.762;2023-03-03T03:09:16;35.22;;;12.82;;
33254;SDS011;19623;52.482;9.762;2023-03-03T03:11:43;33.58;;;12.70;;
33254;SDS011;19623;52.482;9.762;2023-03-03T03:14:09;36.35;;;13.73;;
33254;SDS011;19623;52.482;9.762;2023-03-03T03:16:36;34.03;;;12.82;;
33254;SDS011;19623;52.482;9.762;2023-03-03T03:19:02;31.98;;;13.38;;
33254;SDS011;19623;52.482;9.762;2023-03-03T03:21:28;33.40;;;12.93;;
33254;SDS011;19623;52.482;9.762;2023-03-03T03:23:54;33.58;;;13.13;;
33254;SDS011;19623;52.482;9.762;2023-03-03T03:26:20;36.92;;;12.10;;
33254;SDS011;19623;52.482;9.762;2023-03-03T03:28:47;32.65;;;12.70;;
33254;SDS011;19623;52.482;9.762;2023-03-03T03:31:13;33.05;;;12.82;;
33254;SDS011;19623;52.482;9.762;2023-03-03T03:33:39;34.97;;;13.18;;
33254;SDS011;19623;52.482;9.762;2023-03-03T03:36:05;34.95;;;13.30;;
33254;SDS011;19623;52.482;9.762;2023-03-03T03:38:31;35.50;;;12.55;;
33254;SDS011;19623;52.482;9.762;2023-03-03T03:40:58;34.38;;;13.20;;
33254;SDS011;19623;52.482;9.762;2023-03-03T03:43:24;33.15;;;12.82;;
33254;SDS011;19623;52.482;9.762;2023-03-03T03:45:50;32.63;;;13.07;;
33254;SDS011;19623;52.482;9.762;2023-03-03T03:48:15;33.25;;;12.82;;
33254;SDS011;19623;52.482;9.762;2023-03-03T03:50:43;33.67;;;13.48;;
33254;SDS011;19623;52.482;9.762;2023-03-03T03:53:09;32.22;;;12.07;;
33254;SDS011;19623;52.482;9.762;2023-03-03T03:55:34;34.15;;;13.38;;
33254;SDS011;19623;52.482;9.762;2023-03-03T03:58:00;29.25;;;11.50;;
33254;SDS011;19623;52.482;9.762;2023-03-03T04:00:26;32.90;;;13.07;;
33254;SDS011;19623;52.482;9.762;2023-03-03T04:02:51;37.17;;;14.63;;
33254;SDS011;19623;52.482;9.762;2023-03-03T04:05:17;31.08;;;12.50;;
33254;SDS011;19623;52.482;9.762;2023-03-03T04:07:43;32.40;;;12.48;;
33254;SDS011;19623;52.482;9.762;2023-03-03T04:10:09;39.05;;;13.23;;
33254;SDS011;19623;52.482;9.762;2023-03-03T04:12:35;38.17;;;13.57;;
33254;SDS011;19623;52.482;9.762;2023-03-03T04:15:07;34.42;;;13.30;;
33254;SDS011;19623;52.482;9.762;2023-03-03T04:17:34;31.45;;;12.73;;
33254;SDS011;19623;52.482;9.762;2023-03-03T04:20:00;31.95;;;12.55;;
33254;SDS011;19623;52.482;9.762;2023-03-03T04:22:26;36.10;;;14.73;;
33254;SDS011;19623;52.482;9.762;2023-03-03T04:24:54;39.50;;;14.85;;
33254;SDS011;19623;52.482;9.762;2023-03-03T04:27:19;39.03;;;14.73;;
33254;SDS011;19623;52.482;9.762;2023-03-03T04:29:45;34.78;;;12.82;;
33254;SDS011;19623;52.482;9.762;2023-03-03T04:32:10;35.90;;;14.45;;
33254;SDS011;19623;52.482;9.762;2023-03-03T04:34:36;38.63;;;14.57;;
33254;SDS011;19623;52.482;9.762;2023-03-03T04:37:02;35.88;;;14.52;;
33254;SDS011;19623;52.482;9.762;2023-03-03T04:39:28;36.15;;;13.73;;
33254;SDS011;19623;52.482;9.762;2023-03-03T04:41:53;32.63;;;12.98;;
33254;SDS011;19623;52.482;9.762;2023-03-03T04:44:19;32.60;;;13.50;;
33254;SDS011;19623;52.482;9.762;2023-03-03T04:46:45;32.85;;;13.43;;
33254;SDS011;19623;52.482;9.762;2023-03-03T04:49:10;34.85;;;13.02;;
33254;SDS011;19623;52.482;9.762;2023-03-03T04:51:36;33.15;;;13.63;;
33254;SDS011;19623;52.482;9.762;2023-03-03T04:54:01;34.78;;;13.02;;
33254;SDS011;19623;52.482;9.762;2023-03-03T04:56:29;36.03;;;14.18;;
33254;SDS011;19623;52.482;9.762;2023-03-03T04:58:55;33.97;;;12.60;;
33254;SDS011;19623;52.482;9.762;2023-03-03T05:01:21;30.05;;;13.02;;
33254;SDS011;19623;52.482;9.762;2023-03-03T05:03:47;31.13;;;12.52;;
33254;SDS011;19623;52.482;9.762;2023-03-03T05:06:12;29.35;;;12.57;;
33254;SDS011;19623;52.482;9.762;2023-03-03T05:08:38;29.83;;;12.40;;
33254;SDS011;19623;52.482;9.762;2023-03-03T05:11:04;30.95;;;13.35;;
33254;SDS011;19623;52.482;9.762;2023-03-03T05:13:30;25.90;;;11.65;;
33254;SDS011;19623;52.482;9.762;2023-03-03T05:15:55;29.23;;;12.05;;
33254;SDS011;19623;52.482;9.762;2023-03-03T05:18:24;30.95;;;12.55;;
33254;SDS011;19623;52.482;9.762;2023-03-03T05:20:51;32.17;;;12.32;;
33254;SDS011;19623;52.482;9.762;2023-03-03T05:23:17;28.15;;;12.00;;
33254;SDS011;19623;52.482;9.762;2023-03-03T05:25:43;26.70;;;12.25;;
33254;SDS011;19623;52.482;9.762;2023-03-03T05:28:11;27.67;;;12.32;;
33254;SDS011;19623;52.482;9.762;2023-03-03T05:30:37;27.95;;;12.13;;
33254;SDS011;19623;52.482;9.762;2023-03-03T05:33:03;26.08;;;11.68;;
33254;SDS011;19623;52.482;9.762;2023-03-03T05:35:29;29.88;;;12.75;;
33254;SDS011;19623;52.482;9.762;2023-03-03T05:37:55;28.85;;;12.10;;
33254;SDS011;19623;52.482;9.762;2023-03-03T05:40:22;25.67;;;12.10;;
33254;SDS011;19623;52.482;9.762;2023-03-03T05:42:50;25.75;;;11.60;;
33254;SDS011;19623;52.482;9.762;2023-03-03T05:45:16;30.15;;;11.75;;
33254;SDS011;19623;52.482;9.762;2023-03-03T05:47:45;29.73;;;12.52;;
33254;SDS011;19623;52.482;9.762;2023-03-03T05:50:11;26.40;;;12.02;;
33254;SDS011;19623;52.482;9.762;2023-03-03T05:52:37;25.30;;;11.27;;
33254;SDS011;19623;52.482;9.762;2023-03-03T05:55:03;29.77;;;12.77;;
33254;SDS011;19623;52.482;9.762;2023-03-03T05:57:29;27.73;;;11.80;;
33254;SDS011;19623;52.482;9.762;2023-03-03T05:59:55;28.17;;;11.63;;
33254;SDS011;19623;52.482;9.762;2023-03-03T06:02:21;25.75;;;11.60;;
33254;SDS011;19623;52.482;9.762;2023-03-03T06:04:46;28.02;;;12.52;;
33254;SDS011;19623;52.482;9.762;2023-03-03T06:07:12;29.90;;;12.25;;
33254;SDS011;19623;52.482;9.762;2023-03-03T06:09:38;26.30;;;12.07;;
33254;SDS011;19623;52.482;9.762;2023-03-03T06:12:04;28.25;;;12.30;;
33254;SDS011;19623;52.482;9.762;2023-03-03T06:14:29;27.45;;;12.50;;
33254;SDS011;19623;52.482;9.762;2023-03-03T06:16:55;28.35;;;11.82;;
33254;SDS011;19623;52.482;9.762;2023-03-03T06:19:22;26.50;;;11.90;;
33254;SDS011;19623;52.482;9.762;2023-03-03T06:21:48;27.95;;;12.02;;
33254;SDS011;19623;52.482;9.762;2023-03-03T06:24:13;25.98;;;12.10;;
33254;SDS011;19623;52.482;9.762;2023-03-03T06:26:39;26.08;;;12.15;;
33254;SDS011;19623;52.482;9.762;2023-03-03T06:29:05;25.58;;;10.63;;
33254;SDS011;19623;52.482;9.762;2023-03-03T06:31:31;23.40;;;11.02;;
33254;SDS011;19623;52.482;9.762;2023-03-03T06:33:57;25.60;;;11.35;;
33254;SDS011;19623;52.482;9.762;2023-03-03T06:36:22;24.40;;;10.65;;
33254;SDS011;19623;52.482;9.762;2023-03-03T06:38:49;22.42;;;11.00;;
33254;SDS011;19623;52.482;9.762;2023-03-03T06:41:15;26.33;;;11.60;;
33254;SDS011;19623;52.482;9.762;2023-03-03T06:43:41;25.40;;;11.05;;
33254;SDS011;19623;52.482;9.762;2023-03-03T06:46:07;22.50;;;10.30;;
33254;SDS011;19623;52.482;9.762;2023-03-03T06:48:33;26.33;;;11.30;;
33254;SDS011;19623;52.482;9.762;2023-03-03T06:50:59;25.70;;;10.85;;
33254;SDS011;19623;52.482;9.762;2023-03-03T06:53:27;27.10;;;11.80;;
33254;SDS011;19623;52.482;9.762;2023-03-03T06:55:56;23.02;;;11.35;;
33254;SDS011;19623;52.482;9.762;2023-03-03T06:58:22;27.95;;;11.70;;
33254;SDS011;19623;52.482;9.762;2023-03-03T07:00:58;25.20;;;11.05;;
33254;SDS011;19623;52.482;9.762;2023-03-03T07:03:26;26.80;;;11.55;;
33254;SDS011;19623;52.482;9.762;2023-03-03T07:05:57;26.63;;;11.95;;
33254;SDS011;19623;52.482;9.762;2023-03-03T07:08:23;28.33;;;11.95;;
33254;SDS011;19623;52.482;9.762;2023-03-03T07:10:50;28.25;;;12.30;;
33254;SDS011;19623;52.482;9.762;2023-03-03T07:13:23;25.40;;;11.55;;
33254;SDS011;19623;52.482;9.762;2023-03-03T07:15:55;30.98;;;12.45;;
33254;SDS011;19623;52.482;9.762;2023-03-03T07:18:30;31.50;;;12.73;;
33254;SDS011;19623;52.482;9.762;2023-03-03T07:21:22;29.67;;;12.50;;
33254;SDS011;19623;52.482;9.762;2023-03-03T07:23:54;27.88;;;11.23;;
33254;SDS011;19623;52.482;9.762;2023-03-03T07:26:28;27.10;;;11.35;;
33254;SDS011;19623;52.482;9.762;2023-03-03T07:28:57;25.63;;;11.60;;
33254;SDS011;19623;52.482;9.762;2023-03-03T07:31:35;28.38;;;13.32;;
33254;SDS011;19623;52.482;9.762;2023-03-03T07:34:13;32.33;;;12.75;;
33254;SDS011;19623;52.482;9.762;2023-03-03T07:36:51;30.25;;;13.05;;
33254;SDS011;19623;52.482;9.762;2023-03-03T07:41:50;29.17;;;13.15;;
33254;SDS011;19623;52.482;9.762;2023-03-03T07:44:20;31.48;;;14.38;;
33254;SDS011;19623;52.482;9.762;2023-03-03T07:46:50;31.60;;;12.93;;
33254;SDS011;19623;52.482;9.762;2023-03-03T07:52:00;28.77;;;11.45;;
33254;SDS011;19623;52.482;9.762;2023-03-03T07:54:36;30.90;;;13.20;;
33254;SDS011;19623;52.482;9.762;2023-03-03T07:59:37;26.85;;;12.20;;
33254;SDS011;19623;52.482;9.762;2023-03-03T08:02:19;24.63;;;11.20;;
33254;SDS011;19623;52.482;9.762;2023-03-03T08:07:39;23.77;;;10.02;;
33254;SDS011;19623;52.482;9.762;2023-03-03T08:10:06;23.23;;;10.07;;
33254;SDS011;19623;52.482;9.762;2023-03-03T08:13:20;25.25;;;10.05;;
33254;SDS011;19623;52.482;9.762;2023-03-03T08:15:49;24.25;;;11.02;;
33254;SDS011;19623;52.482;9.762;2023-03-03T08:18:22;27.30;;;11.82;;
33254;SDS011;19623;52.482;9.762;2023-03-03T08:20:53;25.88;;;11.88;;
33254;SDS011;19623;52.482;9.762;2023-03-03T08:23:24;25.75;;;11.35;;
33254;SDS011;19623;52.482;9.762;2023-03-03T08:25:50;25.05;;;11.55;;
33254;SDS011;19623;52.482;9.762;2023-03-03T08:28:17;28.83;;;12.88;;
33254;SDS011;19623;52.482;9.762;2023-03-03T08:30:43;28.98;;;13.18;;
33254;SDS011;19623;52.482;9.762;2023-03-03T08:33:10;29.10;;;12.73;;
33254;SDS011;19623;52.482;9.762;2023-03-03T08:35:36;30.15;;;13.40;;
33254;SDS011;19623;52.482;9.762;2023-03-03T08:38:02;29.00;;;12.48;;
33254;SDS011;19623;52.482;9.762;2023-03-03T08:40:28;26.17;;;11.50;;
33254;SDS011;19623;52.482;9.762;2023-03-03T08:42:53;28.60;;;12.60;;
33254;SDS011;19623;52.482;9.762;2023-03-03T08:45:19;31.33;;;13.13;;
33254;SDS011;19623;52.482;9.762;2023-03-03T08:47:45;29.08;;;12.88;;
33254;SDS011;19623;52.482;9.762;2023-03-03T08:50:11;24.75;;;11.63;;
33254;SDS011;19623;52.482;9.762;2023-03-03T08:52:37;27.85;;;12.32;;
33254;SDS011;19623;52.482;9.762;2023-03-03T08:55:03;27.80;;;11.85;;
33254;SDS011;19623;52.482;9.762;2023-03-03T08:57:29;27.45;;;12.38;;
33254;SDS011;19623;52.482;9.762;2023-03-03T08:59:54;28.52;;;13.00;;
33254;SDS011;19623;52.482;9.762;2023-03-03T09:02:20;31.05;;;13.38;;
33254;SDS011;19623;52.482;9.762;2023-03-03T09:04:46;29.67;;;12.82;;
33254;SDS011;19623;52.482;9.762;2023-03-03T09:07:13;32.67;;;13.93;;
33254;SDS011;19623;52.482;9.762;2023-03-03T09:09:39;33.40;;;12.95;;
33254;SDS011;19623;52.482;9.762;2023-03-03T09:12:28;27.10;;;11.85;;
33254;SDS011;19623;52.482;9.762;2023-03-03T09:14:51;27.80;;;12.60;;
33254;SDS011;19623;52.482;9.762;2023-03-03T09:17:38;29.75;;;12.07;;
33254;SDS011;19623;52.482;9.762;2023-03-03T09:20:49;28.17;;;11.25;;
33254;SDS011;19623;52.482;9.762;2023-03-03T09:22:57;29.48;;;11.90;;
33254;SDS011;19623;52.482;9.762;2023-03-03T09:25:40;28.45;;;12.30;;
33254;SDS011;19623;52.482;9.762;2023-03-03T09:28:29;34.17;;;14.30;;
33254;SDS011;19623;52.482;9.762;2023-03-03T09:30:58;29.30;;;13.18;;
33254;SDS011;19623;52.482;9.762;2023-03-03T09:38:39;37.13;;;14.75;;
33254;SDS011;19623;52.482;9.762;2023-03-03T09:44:15;36.88;;;14.30;;
33254;SDS011;19623;52.482;9.762;2023-03-03T09:55:02;39.45;;;16.35;;
33254;SDS011;19623;52.482;9.762;2023-03-03T10:03:36;39.85;;;15.30;;
33254;SDS011;19623;52.482;9.762;2023-03-03T10:06:16;44.58;;;16.48;;
33254;SDS011;19623;52.482;9.762;2023-03-03T10:09:55;37.97;;;15.30;;
33254;SDS011;19623;52.482;9.762;2023-03-03T10:14:49;44.10;;;17.10;;
33254;SDS011;19623;52.482;9.762;2023-03-03T10:25:37;45.42;;;17.58;;
33254;SDS011;19623;52.482;9.762;2023-03-03T10:53:58;49.45;;;19.77;;
33254;SDS011;19623;52.482;9.762;2023-03-03T11:15:43;48.35;;;19.63;;
33254;SDS011;19623;52.482;9.762;2023-03-03T11:18:22;45.35;;;18.42;;
33254;SDS011;19623;52.482;9.762;2023-03-03T11:24:32;46.13;;;18.50;;
33254;SDS011;19623;52.482;9.762;2023-03-03T11:30:42;46.70;;;19.35;;
33254;SDS011;19623;52.482;9.762;2023-03-03T11:33:26;44.78;;;18.38;;
33254;SDS011;19623;52.482;9.762;2023-03-03T11:41:32;45.70;;;18.95;;
33254;SDS011;19623;52.482;9.762;2023-03-03T11:44:10;47.08;;;18.30;;
33254;SDS011;19623;52.482;9.762;2023-03-03T11:47:00;39.25;;;16.42;;
33254;SDS011;19623;52.482;9.762;2023-03-03T11:57:52;46.00;;;17.30;;
33254;SDS011;19623;52.482;9.762;2023-03-03T12:12:06;42.60;;;17.40;;
33254;SDS011;19623;52.482;9.762;2023-03-03T12:14:51;43.75;;;18.42;;
33254;SDS011;19623;52.482;9.762;2023-03-03T12:29:26;38.63;;;16.58;;
33254;SDS011;19623;52.482;9.762;2023-03-03T12:40:29;39.70;;;15.88;;
33254;SDS011;19623;52.482;9.762;2023-03-03T12:46:19;40.35;;;14.75;;
33254;SDS011;19623;52.482;9.762;2023-03-03T12:49:00;38.97;;;15.15;;
33254;SDS011;19623;52.482;9.762;2023-03-03T12:54:31;36.38;;;15.00;;
33254;SDS011;19623;52.482;9.762;2023-03-03T12:57:18;31.63;;;13.55;;
33254;SDS011;19623;52.482;9.762;2023-03-03T13:02:55;36.28;;;14.23;;
33254;SDS011;19623;52.482;9.762;2023-03-03T13:10:47;34.92;;;14.05;;
33254;SDS011;19623;52.482;9.762;2023-03-03T13:16:38;36.22;;;14.20;;
33254;SDS011;19623;52.482;9.762;2023-03-03T13:19:00;38.58;;;15.35;;
33254;SDS011;19623;52.482;9.762;2023-03-03T13:21:41;36.13;;;15.35;;
33254;SDS011;19623;52.482;9.762;2023-03-03T13:27:00;41.45;;;15.43;;
33254;SDS011;19623;52.482;9.762;2023-03-03T13:32:17;38.05;;;14.32;;
33254;SDS011;19623;52.482;9.762;2023-03-03T13:34:54;36.75;;;13.57;;
33254;SDS011;19623;52.482;9.762;2023-03-03T13:37:37;35.97;;;14.68;;
33254;SDS011;19623;52.482;9.762;2023-03-03T13:45:14;36.13;;;14.88;;
33254;SDS011;19623;52.482;9.762;2023-03-03T13:48:00;40.55;;;14.75;;
33254;SDS011;19623;52.482;9.762;2023-03-03T13:50:50;33.55;;;13.90;;
33254;SDS011;19623;52.482;9.762;2023-03-03T14:07:13;34.13;;;13.90;;
33254;SDS011;19623;52.482;9.762;2023-03-03T14:12:28;32.88;;;13.13;;
33254;SDS011;19623;52.482;9.762;2023-03-03T14:15:20;33.65;;;14.05;;
33254;SDS011;19623;52.482;9.762;2023-03-03T14:18:53;33.13;;;13.23;;
33254;SDS011;19623;52.482;9.762;2023-03-03T14:20:54;32.80;;;14.70;;
33254;SDS011;19623;52.482;9.762;2023-03-03T14:23:45;33.42;;;14.20;;
33254;SDS011;19623;52.482;9.762;2023-03-03T14:26:49;34.25;;;13.90;;
33254;SDS011;19623;52.482;9.762;2023-03-03T14:29:20;36.28;;;13.90;;
33254;SDS011;19623;52.482;9.762;2023-03-03T14:31:57;29.38;;;12.93;;
33254;SDS011;19623;52.482;9.762;2023-03-03T14:34:44;34.13;;;13.57;;
33254;SDS011;19623;52.482;9.762;2023-03-03T14:39:50;30.65;;;13.55;;
33254;SDS011;19623;52.482;9.762;2023-03-03T14:45:35;29.95;;;13.27;;
33254;SDS011;19623;52.482;9.762;2023-03-03T14:48:15;31.83;;;13.13;;
33254;SDS011;19623;52.482;9.762;2023-03-03T14:50:56;31.85;;;12.88;;
33254;SDS011;19623;52.482;9.762;2023-03-03T14:58:54;38.85;;;14.73;;
33254;SDS011;19623;52.482;9.762;2023-03-03T15:01:42;37.35;;;13.55;;
33254;SDS011;19623;52.482;9.762;2023-03-03T15:04:09;33.10;;;14.10;;
33254;SDS011;19623;52.482;9.762;2023-03-03T15:06:49;36.85;;;14.52;;
33254;SDS011;19623;52.482;9.762;2023-03-03T15:12:16;41.60;;;14.77;;
33254;SDS011;19623;52.482;9.762;2023-03-03T15:14:51;42.17;;;15.52;;
33254;SDS011;19623;52.482;9.762;2023-03-03T15:36:57;38.13;;;14.82;;
33254;SDS011;19623;52.482;9.762;2023-03-03T15:42:47;42.33;;;14.23;;
33254;SDS011;19623;52.482;9.762;2023-03-03T15:45:33;44.70;;;14.07;;
33254;SDS011;19623;52.482;9.762;2023-03-03T15:53:59;35.40;;;13.82;;
33254;SDS011;19623;52.482;9.762;2023-03-03T15:56:49;41.60;;;14.85;;
33254;SDS011;19623;52.482;9.762;2023-03-03T16:02:06;43.47;;;14.68;;
33254;SDS011;19623;52.482;9.762;2023-03-03T16:04:35;33.28;;;13.75;;
33254;SDS011;19623;52.482;9.762;2023-03-03T16:17:34;35.00;;;12.98;;
33254;SDS011;19623;52.482;9.762;2023-03-03T16:20:27;33.53;;;12.68;;
33254;SDS011;19623;52.482;9.762;2023-03-03T16:29:10;40.28;;;13.32;;
33254;SDS011;19623;52.482;9.762;2023-03-03T16:34:19;43.10;;;15.85;;
33254;SDS011;19623;52.482;9.762;2023-03-03T16:45:48;50.42;;;18.92;;
33254;SDS011;19623;52.482;9.762;2023-03-03T16:48:29;54.00;;;19.45;;
33254;SDS011;19623;52.482;9.762;2023-03-03T16:51:22;59.03;;;21.67;;
33254;SDS011;19623;52.482;9.762;2023-03-03T16:54:00;60.30;;;21.75;;
33254;SDS011;19623;52.482;9.762;2023-03-03T16:56:36;58.15;;;22.58;;
33254;SDS011;19623;52.482;9.762;2023-03-03T17:07:43;74.55;;;27.38;;
33254;SDS011;19623;52.482;9.762;2023-03-03T17:10:31;76.28;;;27.52;;
33254;SDS011;19623;52.482;9.762;2023-03-03T17:19:08;60.55;;;24.92;;
33254;SDS011;19623;52.482;9.762;2023-03-03T17:30:13;59.15;;;22.52;;
33254;SDS011;19623;52.482;9.762;2023-03-03T17:32:53;50.80;;;20.05;;
33254;SDS011;19623;52.482;9.762;2023-03-03T17:41:07;48.47;;;17.67;;
33254;SDS011;19623;52.482;9.762;2023-03-03T17:43:48;40.20;;;16.45;;
33254;SDS011;19623;52.482;9.762;2023-03-03T17:46:29;44.22;;;16.60;;
33254;SDS011;19623;52.482;9.762;2023-03-03T17:49:05;43.33;;;16.20;;
33254;SDS011;19623;52.482;9.762;2023-03-03T17:51:58;38.70;;;15.35;;
33254;SDS011;19623;52.482;9.762;2023-03-03T17:54:48;39.05;;;15.45;;
33254;SDS011;19623;52.482;9.762;2023-03-03T18:22:04;38.55;;;14.02;;
33254;SDS011;19623;52.482;9.762;2023-03-03T18:24:39;33.53;;;13.30;;
33254;SDS011;19623;52.482;9.762;2023-03-03T18:38:16;46.20;;;16.58;;
33254;SDS011;19623;52.482;9.762;2023-03-03T18:41:01;41.78;;;15.32;;
33254;SDS011;19623;52.482;9.762;2023-03-03T18:46:09;41.25;;;16.95;;
33254;SDS011;19623;52.482;9.762;2023-03-03T18:48:50;38.60;;;14.68;;
33254;SDS011;19623;52.482;9.762;2023-03-03T18:59:57;36.70;;;14.85;;
33254;SDS011;19623;52.482;9.762;2023-03-03T19:07:48;39.22;;;14.50;;
33254;SDS011;19623;52.482;9.762;2023-03-03T19:19:01;32.35;;;13.32;;
33254;SDS011;19623;52.482;9.762;2023-03-03T19:21:33;33.13;;;14.18;;
33254;SDS011;19623;52.482;9.762;2023-03-03T19:24:01;42.38;;;15.27;;
33254;SDS011;19623;52.482;9.762;2023-03-03T19:43:07;35.05;;;13.43;;
33254;SDS011;19623;52.482;9.762;2023-03-03T19:48:22;34.30;;;14.52;;
33254;SDS011;19623;52.482;9.762;2023-03-03T19:53:50;33.90;;;14.30;;
33254;SDS011;19623;52.482;9.762;2023-03-03T20:01:47;29.33;;;12.10;;
33254;SDS011;19623;52.482;9.762;2023-03-03T20:09:42;33.53;;;11.75;;
33254;SDS011;19623;52.482;9.762;2023-03-03T20:23:09;30.58;;;10.23;;
33254;SDS011;19623;52.482;9.762;2023-03-03T20:36:28;23.73;;;10.65;;
33254;SDS011;19623;52.482;9.762;2023-03-03T20:39:09;22.42;;;10.48;;
33254;SDS011;19623;52.482;9.762;2023-03-03T20:41:49;21.13;;;10.02;;
33254;SDS011;19623;52.482;9.762;2023-03-03T20:47:38;23.55;;;9.68;;
33254;SDS011;19623;52.482;9.762;2023-03-03T20:53:05;24.23;;;8.88;;
33254;SDS011;19623;52.482;9.762;2023-03-03T20:55:38;21.67;;;9.25;;
33254;SDS011;19623;52.482;9.762;2023-03-03T21:01:13;18.20;;;7.82;;
33254;SDS011;19623;52.482;9.762;2023-03-03T21:03:45;21.02;;;7.55;;
33254;SDS011;19623;52.482;9.762;2023-03-03T21:06:12;14.98;;;7.20;;
33254;SDS011;19623;52.482;9.762;2023-03-03T21:13:56;21.27;;;7.00;;
33254;SDS011;19623;52.482;9.762;2023-03-03T21:21:42;17.10;;;6.00;;
33254;SDS011;19623;52.482;9.762;2023-03-03T21:24:11;14.32;;;6.05;;
33254;SDS011;19623;52.482;9.762;2023-03-03T21:29:36;18.00;;;6.13;;
33254;SDS011;19623;52.482;9.762;2023-03-03T21:32:03;20.00;;;7.07;;
33254;SDS011;19623;52.482;9.762;2023-03-03T21:34:36;18.40;;;6.13;;
33254;SDS011;19623;52.482;9.762;2023-03-03T21:39:37;18.15;;;6.82;;
33254;SDS011;19623;52.482;9.762;2023-03-03T21:47:03;19.50;;;4.68;;
33254;SDS011;19623;52.482;9.762;2023-03-03T21:49:30;11.13;;;5.07;;
33254;SDS011;19623;52.482;9.762;2023-03-03T21:51:56;18.25;;;5.20;;
33254;SDS011;19623;52.482;9.762;2023-03-03T21:54:22;16.67;;;4.28;;
33254;SDS011;19623;52.482;9.762;2023-03-03T21:56:48;12.10;;;4.25;;
33254;SDS011;19623;52.482;9.762;2023-03-03T21:59:15;20.98;;;4.38;;
33254;SDS011;19623;52.482;9.762;2023-03-03T22:01:41;23.73;;;4.05;;
33254;SDS011;19623;52.482;9.762;2023-03-03T22:04:07;14.90;;;3.50;;
33254;SDS011;19623;52.482;9.762;2023-03-03T22:06:33;20.00;;;4.63;;
33254;SDS011;19623;52.482;9.762;2023-03-03T22:08:59;17.83;;;3.92;;
33254;SDS011;19623;52.482;9.762;2023-03-03T22:11:24;16.60;;;3.50;;
33254;SDS011;19623;52.482;9.762;2023-03-03T22:13:50;13.88;;;3.30;;
33254;SDS011;19623;52.482;9.762;2023-03-03T22:16:15;23.30;;;4.50;;
33254;SDS011;19623;52.482;9.762;2023-03-03T22:18:41;17.85;;;4.30;;
33254;SDS011;19623;52.482;9.762;2023-03-03T22:21:07;14.77;;;3.65;;